sensor_id;sensor_type;location;lat;lon;timestamp;pressure;altitude;pressure_sealevel;temperature;humidity
58243;BME280;50118;53.232;8.252;2022-09-16T00:01:14;100567.50;;;9.60;100.00
58243;BME280;50118;53.232;8.252;2022-09-16T00:03:41;100564.28;;;9.66;100.00
58243;BME280;50118;53.232;8.252;2022-09-16T00:06:16;100563.75;;;9.63;100.00
58243;BME280;50118;53.232;8.252;2022-09-16T00:08:41;100568.19;;;9.72;100.00
58243;BME280;50118;53.232;8.252;2022-09-16T00:11:10;100576.34;;;9.70;100.00
58243;BME280;50118;53.232;8.252;2022-09-16T00:13:35;100581.63;;;9.80;100.00
58243;BME280;50118;53.232;8.252;2022-09-16T00:16:01;100570.44;;;9.77;100.00
58243;BME280;50118;53.232;8.252;2022-09-16T00:18:30;100568.75;;;9.76;100.00
58243;BME280;50118;53.232;8.252;2022-09-16T00:20:56;100585.97;;;9.71;100.00
58243;BME280;50118;53.232;8.252;2022-09-16T00:23:21;100593.13;;;9.81;100.00
58243;BME280;50118;53.232;8.252;2022-09-16T00:25:51;100590.72;;;9.78;100.00
58243;BME280;50118;53.232;8.252;2022-09-16T00:28:17;100585.13;;;9.81;100.00
58243;BME280;50118;53.232;8.252;2022-09-16T00:30:43;100571.25;;;9.87;100.00
58243;BME280;50118;53.232;8.252;2022-09-16T00:33:09;100563.69;;;9.82;100.00
58243;BME280;50118;53.232;8.252;2022-09-16T00:35:34;100561.88;;;9.83;100.00
58243;BME280;50118;53.232;8.252;2022-09-16T00:37:59;100571.84;;;9.81;100.00
58243;BME280;50118;53.232;8.252;2022-09-16T00:40:25;100568.44;;;9.79;100.00
58243;BME280;50118;53.232;8.252;2022-09-16T00:42:50;100562.16;;;9.80;100.00
58243;BME280;50118;53.232;8.252;2022-09-16T00:45:26;100559.94;;;9.75;100.00
58243;BME280;50118;53.232;8.252;2022-09-16T00:48:00;100553.94;;;9.63;100.00
58243;BME280;50118;53.232;8.252;2022-09-16T00:53:11;100562.63;;;9.65;100.00
58243;BME280;50118;53.232;8.252;2022-09-16T00:55:39;100559.81;;;9.67;100.00
58243;BME280;50118;53.232;8.252;2022-09-16T00:58:11;100557.31;;;9.65;100.00
58243;BME280;50118;53.232;8.252;2022-09-16T01:00:38;100559.66;;;9.68;100.00
58243;BME280;50118;53.232;8.252;2022-09-16T01:03:04;100562.31;;;9.68;100.00
58243;BME280;50118;53.232;8.252;2022-09-16T01:05:30;100556.84;;;9.70;100.00
58243;BME280;50118;53.232;8.252;2022-09-16T01:07:55;100561.06;;;9.72;100.00
58243;BME280;50118;53.232;8.252;2022-09-16T01:10:24;100556.97;;;9.78;100.00
58243;BME280;50118;53.232;8.252;2022-09-16T01:13:02;100555.16;;;9.79;100.00
58243;BME280;50118;53.232;8.252;2022-09-16T01:18:34;100548.88;;;9.80;100.00
58243;BME280;50118;53.232;8.252;2022-09-16T01:26:52;100550.72;;;9.69;100.00
58243;BME280;50118;53.232;8.252;2022-09-16T01:37:08;100548.06;;;9.69;100.00
58243;BME280;50118;53.232;8.252;2022-09-16T01:39:45;100553.78;;;9.65;100.00
58243;BME280;50118;53.232;8.252;2022-09-16T01:45:03;100544.56;;;9.69;100.00
58243;BME280;50118;53.232;8.252;2022-09-16T01:47:36;100548.34;;;9.66;100.00
58243;BME280;50118;53.232;8.252;2022-09-16T01:53:15;100547.63;;;9.74;100.00
58243;BME280;50118;53.232;8.252;2022-09-16T01:56:24;100559.09;;;9.75;100.00
58243;BME280;50118;53.232;8.252;2022-09-16T01:59:40;100570.72;;;9.73;100.00
58243;BME280;50118;53.232;8.252;2022-09-16T02:02:28;100593.25;;;9.69;100.00
58243;BME280;50118;53.232;8.252;2022-09-16T02:04:58;100584.41;;;9.79;100.00
58243;BME280;50118;53.232;8.252;2022-09-16T02:07:31;100571.44;;;9.76;100.00
58243;BME280;50118;53.232;8.252;2022-09-16T02:10:04;100572.13;;;9.78;100.00
58243;BME280;50118;53.232;8.252;2022-09-16T02:12:37;100559.22;;;9.83;100.00
58243;BME280;50118;53.232;8.252;2022-09-16T02:15:07;100567.63;;;9.78;100.00
58243;BME280;50118;53.232;8.252;2022-09-16T02:17:42;100561.22;;;9.71;100.00
58243;BME280;50118;53.232;8.252;2022-09-16T02:20:13;100557.31;;;9.65;100.00
58243;BME280;50118;53.232;8.252;2022-09-16T02:22:48;100562.78;;;9.64;100.00
58243;BME280;50118;53.232;8.252;2022-09-16T02:25:17;100558.16;;;9.66;100.00
58243;BME280;50118;53.232;8.252;2022-09-16T02:27:45;100554.78;;;9.64;100.00
58243;BME280;50118;53.232;8.252;2022-09-16T02:30:15;100541.63;;;9.62;100.00
58243;BME280;50118;53.232;8.252;2022-09-16T02:32:45;100551.28;;;9.63;100.00
58243;BME280;50118;53.232;8.252;2022-09-16T02:35:15;100534.50;;;9.63;100.00
58243;BME280;50118;53.232;8.252;2022-09-16T02:40:19;100546.69;;;9.65;100.00
58243;BME280;50118;53.232;8.252;2022-09-16T02:42:46;100544.44;;;9.61;100.00
58243;BME280;50118;53.232;8.252;2022-09-16T02:45:13;100551.88;;;9.57;100.00
58243;BME280;50118;53.232;8.252;2022-09-16T02:50:36;100553.38;;;9.69;100.00
58243;BME280;50118;53.232;8.252;2022-09-16T02:58:52;100563.03;;;9.70;100.00
58243;BME280;50118;53.232;8.252;2022-09-16T03:01:18;100556.44;;;9.75;100.00
58243;BME280;50118;53.232;8.252;2022-09-16T03:03:44;100564.41;;;9.75;100.00
58243;BME280;50118;53.232;8.252;2022-09-16T03:06:21;100557.28;;;9.75;100.00
58243;BME280;50118;53.232;8.252;2022-09-16T03:08:48;100555.28;;;9.77;100.00
58243;BME280;50118;53.232;8.252;2022-09-16T03:14:02;100547.03;;;9.80;100.00
58243;BME280;50118;53.232;8.252;2022-09-16T03:19:19;100548.19;;;9.68;100.00
58243;BME280;50118;53.232;8.252;2022-09-16T03:24:44;100553.25;;;9.61;100.00
58243;BME280;50118;53.232;8.252;2022-09-16T03:27:18;100549.63;;;9.62;100.00
58243;BME280;50118;53.232;8.252;2022-09-16T03:29:54;100547.38;;;9.58;100.00
58243;BME280;50118;53.232;8.252;2022-09-16T03:32:23;100550.88;;;9.58;100.00
58243;BME280;50118;53.232;8.252;2022-09-16T03:34:54;100539.25;;;9.59;100.00
58243;BME280;50118;53.232;8.252;2022-09-16T03:37:24;100541.34;;;9.65;100.00
58243;BME280;50118;53.232;8.252;2022-09-16T03:39:55;100542.34;;;9.54;100.00
58243;BME280;50118;53.232;8.252;2022-09-16T03:42:21;100549.22;;;9.57;100.00
58243;BME280;50118;53.232;8.252;2022-09-16T03:44:47;100543.56;;;9.60;100.00
58243;BME280;50118;53.232;8.252;2022-09-16T03:47:13;100545.53;;;9.58;100.00
58243;BME280;50118;53.232;8.252;2022-09-16T03:49:39;100543.56;;;9.60;100.00
58243;BME280;50118;53.232;8.252;2022-09-16T03:52:05;100542.88;;;9.58;100.00
58243;BME280;50118;53.232;8.252;2022-09-16T03:54:31;100543.00;;;9.66;100.00
58243;BME280;50118;53.232;8.252;2022-09-16T03:56:57;100548.06;;;9.69;100.00
58243;BME280;50118;53.232;8.252;2022-09-16T03:59:24;100543.88;;;9.57;100.00
58243;BME280;50118;53.232;8.252;2022-09-16T04:01:50;100544.44;;;9.51;100.00
58243;BME280;50118;53.232;8.252;2022-09-16T04:04:15;100543.75;;;9.59;100.00
58243;BME280;50118;53.232;8.252;2022-09-16T04:06:41;100536.75;;;9.58;100.00
58243;BME280;50118;53.232;8.252;2022-09-16T04:09:09;100538.44;;;9.59;100.00
58243;BME280;50118;53.232;8.252;2022-09-16T04:11:36;100524.28;;;9.58;100.00
58243;BME280;50118;53.232;8.252;2022-09-16T04:14:03;100530.47;;;9.49;100.00
58243;BME280;50118;53.232;8.252;2022-09-16T04:16:28;100528.91;;;9.46;100.00
58243;BME280;50118;53.232;8.252;2022-09-16T04:18:54;100527.13;;;9.47;100.00
58243;BME280;50118;53.232;8.252;2022-09-16T04:21:19;100526.31;;;9.37;100.00
58243;BME280;50118;53.232;8.252;2022-09-16T04:23:45;100520.97;;;9.37;100.00
58243;BME280;50118;53.232;8.252;2022-09-16T04:26:10;100533.88;;;9.31;100.00
58243;BME280;50118;53.232;8.252;2022-09-16T04:28:36;100524.75;;;9.24;100.00
58243;BME280;50118;53.232;8.252;2022-09-16T04:31:03;100529.38;;;9.32;100.00
58243;BME280;50118;53.232;8.252;2022-09-16T04:33:31;100521.69;;;9.19;100.00
58243;BME280;50118;53.232;8.252;2022-09-16T04:36:13;100526.88;;;9.21;100.00
58243;BME280;50118;53.232;8.252;2022-09-16T04:38:40;100525.47;;;9.16;100.00
58243;BME280;50118;53.232;8.252;2022-09-16T04:41:11;100526.03;;;9.10;100.00
58243;BME280;50118;53.232;8.252;2022-09-16T04:43:37;100521.28;;;9.14;100.00
58243;BME280;50118;53.232;8.252;2022-09-16T04:46:03;100529.41;;;9.03;100.00
58243;BME280;50118;53.232;8.252;2022-09-16T04:48:29;100520.28;;;8.95;100.00
58243;BME280;50118;53.232;8.252;2022-09-16T04:51:10;100526.59;;;8.94;100.00
58243;BME280;50118;53.232;8.252;2022-09-16T04:53:37;100530.22;;;8.93;100.00
58243;BME280;50118;53.232;8.252;2022-09-16T04:56:07;100527.16;;;8.88;100.00
58243;BME280;50118;53.232;8.252;2022-09-16T04:58:34;100524.78;;;8.85;100.00
58243;BME280;50118;53.232;8.252;2022-09-16T05:01:07;100528.72;;;8.91;100.00
58243;BME280;50118;53.232;8.252;2022-09-16T05:03:37;100518.22;;;8.89;100.00
58243;BME280;50118;53.232;8.252;2022-09-16T05:06:08;100508.56;;;8.88;100.00
58243;BME280;50118;53.232;8.252;2022-09-16T05:08:34;100511.78;;;8.82;100.00
58243;BME280;50118;53.232;8.252;2022-09-16T05:11:11;100508.84;;;8.85;100.00
58243;BME280;50118;53.232;8.252;2022-09-16T05:13:37;100502.00;;;8.83;100.00
58243;BME280;50118;53.232;8.252;2022-09-16T05:16:10;100499.47;;;8.81;100.00
58243;BME280;50118;53.232;8.252;2022-09-16T05:18:37;100506.75;;;8.79;100.00
58243;BME280;50118;53.232;8.252;2022-09-16T05:21:05;100504.09;;;8.79;100.00
58243;BME280;50118;53.232;8.252;2022-09-16T05:23:31;100488.84;;;8.81;100.00
58243;BME280;50118;53.232;8.252;2022-09-16T05:26:08;100490.41;;;8.84;100.00
58243;BME280;50118;53.232;8.252;2022-09-16T05:28:35;100492.47;;;8.80;100.00
58243;BME280;50118;53.232;8.252;2022-09-16T05:33:41;100488.31;;;8.77;100.00
58243;BME280;50118;53.232;8.252;2022-09-16T05:36:10;100503.38;;;8.87;100.00
58243;BME280;50118;53.232;8.252;2022-09-16T05:38:36;100504.25;;;8.87;100.00
58243;BME280;50118;53.232;8.252;2022-09-16T05:41:02;100510.66;;;8.94;100.00
58243;BME280;50118;53.232;8.252;2022-09-16T05:43:29;100504.22;;;8.97;100.00
58243;BME280;50118;53.232;8.252;2022-09-16T05:45:55;100513.06;;;8.97;100.00
58243;BME280;50118;53.232;8.252;2022-09-16T05:48:22;100507.88;;;8.96;100.00
58243;BME280;50118;53.232;8.252;2022-09-16T05:50:55;100519.06;;;9.00;100.00
58243;BME280;50118;53.232;8.252;2022-09-16T05:53:22;100512.34;;;9.05;100.00
58243;BME280;50118;53.232;8.252;2022-09-16T05:58:27;100517.50;;;9.07;100.00
58243;BME280;50118;53.232;8.252;2022-09-16T06:01:00;100511.78;;;9.11;100.00
58243;BME280;50118;53.232;8.252;2022-09-16T06:03:26;100522.41;;;9.21;100.00
58243;BME280;50118;53.232;8.252;2022-09-16T06:05:58;100513.16;;;9.25;100.00
58243;BME280;50118;53.232;8.252;2022-09-16T06:08:24;100519.28;;;9.35;100.00
58243;BME280;50118;53.232;8.252;2022-09-16T06:10:49;100515.75;;;9.45;100.00
58243;BME280;50118;53.232;8.252;2022-09-16T06:13:15;100515.75;;;9.45;100.00
58243;BME280;50118;53.232;8.252;2022-09-16T06:15:50;100521.06;;;9.64;100.00
58243;BME280;50118;53.232;8.252;2022-09-16T06:18:18;100512.19;;;9.73;100.00
58243;BME280;50118;53.232;8.252;2022-09-16T06:20:44;100513.59;;;9.78;100.00
58243;BME280;50118;53.232;8.252;2022-09-16T06:23:10;100506.19;;;9.71;100.00
58243;BME280;50118;53.232;8.252;2022-09-16T06:25:36;100501.41;;;9.75;100.00
58243;BME280;50118;53.232;8.252;2022-09-16T06:28:02;100506.63;;;9.67;100.00
58243;BME280;50118;53.232;8.252;2022-09-16T06:30:27;100497.63;;;9.78;100.00
58243;BME280;50118;53.232;8.252;2022-09-16T06:32:53;100503.75;;;9.88;100.00
58243;BME280;50118;53.232;8.252;2022-09-16T06:35:18;100496.28;;;10.01;100.00
58243;BME280;50118;53.232;8.252;2022-09-16T06:37:44;100495.97;;;10.04;100.00
58243;BME280;50118;53.232;8.252;2022-09-16T06:40:09;100505.22;;;10.00;100.00
58243;BME280;50118;53.232;8.252;2022-09-16T06:42:35;100505.72;;;10.14;100.00
58243;BME280;50118;53.232;8.252;2022-09-16T06:45:00;100501.09;;;10.16;100.00
58243;BME280;50118;53.232;8.252;2022-09-16T06:47:28;100503.50;;;10.37;100.00
58243;BME280;50118;53.232;8.252;2022-09-16T06:49:54;100495.19;;;10.50;100.00
58243;BME280;50118;53.232;8.252;2022-09-16T06:52:19;100500.84;;;10.64;100.00
58243;BME280;50118;53.232;8.252;2022-09-16T06:54:45;100502.88;;;10.89;100.00
58243;BME280;50118;53.232;8.252;2022-09-16T06:57:11;100497.28;;;11.18;100.00
58243;BME280;50118;53.232;8.252;2022-09-16T06:59:37;100493.34;;;11.22;100.00
58243;BME280;50118;53.232;8.252;2022-09-16T07:02:02;100487.50;;;11.27;100.00
58243;BME280;50118;53.232;8.252;2022-09-16T07:04:28;100493.53;;;11.29;100.00
58243;BME280;50118;53.232;8.252;2022-09-16T07:06:53;100487.56;;;11.35;100.00
58243;BME280;50118;53.232;8.252;2022-09-16T07:09:22;100476.53;;;11.30;100.00
58243;BME280;50118;53.232;8.252;2022-09-16T07:11:47;100478.91;;;11.33;100.00
58243;BME280;50118;53.232;8.252;2022-09-16T07:14:13;100478.16;;;11.23;100.00
58243;BME280;50118;53.232;8.252;2022-09-16T07:16:38;100478.84;;;11.25;100.00
58243;BME280;50118;53.232;8.252;2022-09-16T07:19:04;100475.66;;;11.47;100.00
58243;BME280;50118;53.232;8.252;2022-09-16T07:21:30;100481.28;;;11.70;100.00
58243;BME280;50118;53.232;8.252;2022-09-16T07:26:55;100471.28;;;12.07;100.00
58243;BME280;50118;53.232;8.252;2022-09-16T07:29:23;100477.69;;;12.14;100.00
58243;BME280;50118;53.232;8.252;2022-09-16T07:31:49;100473.00;;;12.16;100.00
58243;BME280;50118;53.232;8.252;2022-09-16T07:34:14;100482.31;;;12.04;100.00
58243;BME280;50118;53.232;8.252;2022-09-16T07:36:48;100476.22;;;12.28;100.00
58243;BME280;50118;53.232;8.252;2022-09-16T07:39:17;100480.56;;;12.37;100.00
58243;BME280;50118;53.232;8.252;2022-09-16T07:41:46;100488.41;;;12.30;100.00
58243;BME280;50118;53.232;8.252;2022-09-16T07:44:15;100490.97;;;12.65;100.00
58243;BME280;50118;53.232;8.252;2022-09-16T07:49:50;100482.81;;;12.83;99.99
58243;BME280;50118;53.232;8.252;2022-09-16T07:52:22;100497.19;;;12.90;100.00
58243;BME280;50118;53.232;8.252;2022-09-16T07:58:18;100491.19;;;13.04;98.54
58243;BME280;50118;53.232;8.252;2022-09-16T08:04:19;100494.84;;;13.20;96.92
58243;BME280;50118;53.232;8.252;2022-09-16T08:06:45;100485.81;;;13.37;91.73
58243;BME280;50118;53.232;8.252;2022-09-16T08:09:16;100500.19;;;13.53;91.62
58243;BME280;50118;53.232;8.252;2022-09-16T08:11:42;100488.09;;;13.65;93.78
58243;BME280;50118;53.232;8.252;2022-09-16T08:14:07;100492.81;;;13.47;91.22
58243;BME280;50118;53.232;8.252;2022-09-16T08:16:33;100494.00;;;13.52;93.40
58243;BME280;50118;53.232;8.252;2022-09-16T08:19:02;100499.16;;;13.62;92.35
58243;BME280;50118;53.232;8.252;2022-09-16T08:25:02;100488.75;;;13.75;90.54
58243;BME280;50118;53.232;8.252;2022-09-16T08:27:36;100499.50;;;13.59;88.86
58243;BME280;50118;53.232;8.252;2022-09-16T08:30:03;100493.06;;;13.93;88.07
58243;BME280;50118;53.232;8.252;2022-09-16T08:35:07;100493.03;;;14.64;85.53
58243;BME280;50118;53.232;8.252;2022-09-16T08:37:33;100487.63;;;14.72;81.98
58243;BME280;50118;53.232;8.252;2022-09-16T08:40:03;100484.84;;;14.88;80.95
58243;BME280;50118;53.232;8.252;2022-09-16T08:48:00;100484.25;;;15.16;75.04
58243;BME280;50118;53.232;8.252;2022-09-16T08:50:38;100466.91;;;15.57;74.41
58243;BME280;50118;53.232;8.252;2022-09-16T08:53:45;100480.34;;;15.72;74.33
58243;BME280;50118;53.232;8.252;2022-09-16T08:56:21;100481.72;;;15.53;72.38
58243;BME280;50118;53.232;8.252;2022-09-16T08:58:52;100481.44;;;15.62;73.67
58243;BME280;50118;53.232;8.252;2022-09-16T09:26:30;100502.53;;;14.74;78.16
58243;BME280;50118;53.232;8.252;2022-09-16T09:42:52;100484.06;;;14.48;96.93
58243;BME280;50118;53.232;8.252;2022-09-16T09:45:31;100478.59;;;15.11;90.21
58243;BME280;50118;53.232;8.252;2022-09-16T09:48:19;100474.63;;;16.04;85.51
58243;BME280;50118;53.232;8.252;2022-09-16T09:50:45;100457.47;;;16.42;77.50
58243;BME280;50118;53.232;8.252;2022-09-16T10:00:15;100456.34;;;17.23;69.09
58243;BME280;50118;53.232;8.252;2022-09-16T10:03:13;100449.75;;;16.97;66.28
58243;BME280;50118;53.232;8.252;2022-09-16T10:06:01;100457.59;;;17.20;68.62
58243;BME280;50118;53.232;8.252;2022-09-16T10:10:55;100455.75;;;16.99;60.49
58243;BME280;50118;53.232;8.252;2022-09-16T10:16:46;100467.75;;;15.57;64.32
58243;BME280;50118;53.232;8.252;2022-09-16T10:19:22;100462.50;;;15.94;63.45
58243;BME280;50118;53.232;8.252;2022-09-16T10:24:58;100462.31;;;15.80;63.30
58243;BME280;50118;53.232;8.252;2022-09-16T10:27:29;100466.84;;;15.80;62.57
58243;BME280;50118;53.232;8.252;2022-09-16T10:32:56;100441.09;;;16.37;63.62
58243;BME280;50118;53.232;8.252;2022-09-16T10:35:40;100443.84;;;16.43;61.56
58243;BME280;50118;53.232;8.252;2022-09-16T10:38:43;100446.16;;;15.95;63.86
58243;BME280;50118;53.232;8.252;2022-09-16T10:41:16;100440.25;;;16.00;64.83
58243;BME280;50118;53.232;8.252;2022-09-16T10:44:36;100448.69;;;16.55;65.10
58243;BME280;50118;53.232;8.252;2022-09-16T10:47:01;100444.47;;;16.46;62.89
58243;BME280;50118;53.232;8.252;2022-09-16T10:49:51;100434.75;;;16.66;61.98
58243;BME280;50118;53.232;8.252;2022-09-16T10:53:20;100433.56;;;17.18;61.20
58243;BME280;50118;53.232;8.252;2022-09-16T11:08:30;100445.09;;;14.69;78.44
58243;BME280;50118;53.232;8.252;2022-09-16T11:13:59;100450.63;;;14.90;81.48
58243;BME280;50118;53.232;8.252;2022-09-16T11:16:49;100439.63;;;15.53;78.50
58243;BME280;50118;53.232;8.252;2022-09-16T11:30:54;100425.97;;;17.64;66.68
58243;BME280;50118;53.232;8.252;2022-09-16T11:33:27;100425.53;;;16.75;70.81
58243;BME280;50118;53.232;8.252;2022-09-16T11:40:16;100441.44;;;15.67;75.04
58243;BME280;50118;53.232;8.252;2022-09-16T11:45:41;100447.47;;;14.87;82.85
58243;BME280;50118;53.232;8.252;2022-09-16T11:59:09;100420.19;;;14.98;81.69
58243;BME280;50118;53.232;8.252;2022-09-16T12:01:43;100420.91;;;15.30;77.43
58243;BME280;50118;53.232;8.252;2022-09-16T12:04:43;100425.16;;;15.54;73.76
58243;BME280;50118;53.232;8.252;2022-09-16T12:07:16;100415.28;;;15.55;70.13
58243;BME280;50118;53.232;8.252;2022-09-16T12:13:03;100414.06;;;15.87;72.01
58243;BME280;50118;53.232;8.252;2022-09-16T12:15:47;100401.44;;;15.73;69.05
58243;BME280;50118;53.232;8.252;2022-09-16T12:18:26;100406.66;;;15.89;69.03
58243;BME280;50118;53.232;8.252;2022-09-16T12:23:54;100380.91;;;15.80;66.95
58243;BME280;50118;53.232;8.252;2022-09-16T12:26:31;100372.78;;;16.10;67.23
58243;BME280;50118;53.232;8.252;2022-09-16T12:32:51;100376.00;;;16.20;65.20
58243;BME280;50118;53.232;8.252;2022-09-16T12:35:46;100354.84;;;15.95;65.85
58243;BME280;50118;53.232;8.252;2022-09-16T12:38:15;100369.06;;;15.89;65.40
58243;BME280;50118;53.232;8.252;2022-09-16T12:55:12;100387.16;;;14.36;72.16
58243;BME280;50118;53.232;8.252;2022-09-16T13:03:44;100375.31;;;14.31;69.15
58243;BME280;50118;53.232;8.252;2022-09-16T13:06:24;100386.41;;;14.28;69.58
58243;BME280;50118;53.232;8.252;2022-09-16T13:09:11;100378.66;;;14.33;71.68
58243;BME280;50118;53.232;8.252;2022-09-16T13:11:52;100394.72;;;14.10;71.81
58243;BME280;50118;53.232;8.252;2022-09-16T13:14:30;100396.97;;;13.98;73.15
58243;BME280;50118;53.232;8.252;2022-09-16T13:19:54;100380.97;;;13.81;71.87
58243;BME280;50118;53.232;8.252;2022-09-16T13:30:52;100384.66;;;13.80;75.06
58243;BME280;50118;53.232;8.252;2022-09-16T13:33:23;100381.34;;;13.70;76.12
58243;BME280;50118;53.232;8.252;2022-09-16T13:39:29;100388.72;;;13.76;77.59
58243;BME280;50118;53.232;8.252;2022-09-16T13:41:55;100371.00;;;13.67;76.22
58243;BME280;50118;53.232;8.252;2022-09-16T13:44:25;100378.41;;;13.57;76.27
58243;BME280;50118;53.232;8.252;2022-09-16T13:46:51;100377.44;;;13.50;78.03
58243;BME280;50118;53.232;8.252;2022-09-16T13:49:20;100370.38;;;13.57;78.05
58243;BME280;50118;53.232;8.252;2022-09-16T13:51:51;100380.44;;;13.47;79.00
58243;BME280;50118;53.232;8.252;2022-09-16T13:54:42;100389.53;;;13.21;80.75
58243;BME280;50118;53.232;8.252;2022-09-16T13:57:49;100392.03;;;13.22;81.43
58243;BME280;50118;53.232;8.252;2022-09-16T14:00:28;100382.97;;;13.40;81.60
58243;BME280;50118;53.232;8.252;2022-09-16T14:15:09;100380.88;;;13.02;87.37
58243;BME280;50118;53.232;8.252;2022-09-16T14:17:41;100380.03;;;13.02;88.89
58243;BME280;50118;53.232;8.252;2022-09-16T14:20:16;100381.72;;;13.03;90.48
58243;BME280;50118;53.232;8.252;2022-09-16T14:25:47;100378.25;;;12.78;93.01
58243;BME280;50118;53.232;8.252;2022-09-16T14:28:25;100368.91;;;12.74;94.73
58243;BME280;50118;53.232;8.252;2022-09-16T14:30:57;100372.22;;;12.59;96.35
58243;BME280;50118;53.232;8.252;2022-09-16T14:33:35;100370.09;;;12.46;97.30
58243;BME280;50118;53.232;8.252;2022-09-16T14:36:08;100366.22;;;12.41;99.23
58243;BME280;50118;53.232;8.252;2022-09-16T14:38:39;100375.56;;;12.28;100.00
58243;BME280;50118;53.232;8.252;2022-09-16T14:41:07;100371.19;;;12.03;100.00
58243;BME280;50118;53.232;8.252;2022-09-16T14:43:37;100369.25;;;11.78;100.00
58243;BME280;50118;53.232;8.252;2022-09-16T14:46:05;100369.69;;;11.66;100.00
58243;BME280;50118;53.232;8.252;2022-09-16T14:48:34;100370.38;;;11.59;100.00
58243;BME280;50118;53.232;8.252;2022-09-16T14:51:02;100363.28;;;11.42;100.00
58243;BME280;50118;53.232;8.252;2022-09-16T14:53:34;100367.31;;;11.20;100.00
58243;BME280;50118;53.232;8.252;2022-09-16T14:56:03;100375.31;;;11.12;100.00
58243;BME280;50118;53.232;8.252;2022-09-16T14:58:30;100365.66;;;11.19;100.00
58243;BME280;50118;53.232;8.252;2022-09-16T15:01:07;100379.25;;;11.08;100.00
58243;BME280;50118;53.232;8.252;2022-09-16T15:06:11;100382.06;;;11.06;100.00
58243;BME280;50118;53.232;8.252;2022-09-16T15:09:06;100376.44;;;11.09;100.00
58243;BME280;50118;53.232;8.252;2022-09-16T15:11:45;100369.13;;;11.11;100.00
58243;BME280;50118;53.232;8.252;2022-09-16T15:14:12;100363.13;;;11.09;100.00
58243;BME280;50118;53.232;8.252;2022-09-16T15:16:50;100360.25;;;11.02;100.00
58243;BME280;50118;53.232;8.252;2022-09-16T15:19:26;100358.44;;;11.11;100.00
58243;BME280;50118;53.232;8.252;2022-09-16T15:21:52;100359.72;;;10.99;100.00
58243;BME280;50118;53.232;8.252;2022-09-16T15:24:23;100364.00;;;10.92;100.00
58243;BME280;50118;53.232;8.252;2022-09-16T15:26:50;100368.19;;;10.94;100.00
58243;BME280;50118;53.232;8.252;2022-09-16T15:31:45;100363.06;;;11.01;100.00
58243;BME280;50118;53.232;8.252;2022-09-16T15:36:55;100368.69;;;10.98;100.00
58243;BME280;50118;53.232;8.252;2022-09-16T15:39:33;100379.19;;;10.99;100.00
58243;BME280;50118;53.232;8.252;2022-09-16T15:44:59;100367.72;;;10.99;100.00
58243;BME280;50118;53.232;8.252;2022-09-16T15:47:28;100369.03;;;10.95;100.00
58243;BME280;50118;53.232;8.252;2022-09-16T15:50:16;100378.22;;;11.00;100.00
58243;BME280;50118;53.232;8.252;2022-09-16T15:55:12;100384.38;;;11.01;100.00
58243;BME280;50118;53.232;8.252;2022-09-16T15:57:41;100380.09;;;11.08;100.00
58243;BME280;50118;53.232;8.252;2022-09-16T16:00:12;100381.34;;;11.22;100.00
58243;BME280;50118;53.232;8.252;2022-09-16T16:02:43;100377.88;;;11.30;100.00
58243;BME280;50118;53.232;8.252;2022-09-16T16:05:16;100380.50;;;11.21;100.00
58243;BME280;50118;53.232;8.252;2022-09-16T16:10:24;100386.47;;;11.15;100.00
58243;BME280;50118;53.232;8.252;2022-09-16T16:12:52;100387.72;;;11.03;100.00
58243;BME280;50118;53.232;8.252;2022-09-16T16:15:28;100387.03;;;11.01;100.00
58243;BME280;50118;53.232;8.252;2022-09-16T16:17:58;100385.03;;;10.95;100.00
58243;BME280;50118;53.232;8.252;2022-09-16T16:20:26;100392.31;;;10.93;100.00
58243;BME280;50118;53.232;8.252;2022-09-16T16:22:51;100397.03;;;10.99;100.00
58243;BME280;50118;53.232;8.252;2022-09-16T16:25:17;100388.66;;;10.94;100.00
58243;BME280;50118;53.232;8.252;2022-09-16T16:27:43;100380.88;;;11.00;100.00
58243;BME280;50118;53.232;8.252;2022-09-16T16:30:09;100378.38;;;10.99;100.00
58243;BME280;50118;53.232;8.252;2022-09-16T16:32:35;100374.09;;;11.06;100.00
58243;BME280;50118;53.232;8.252;2022-09-16T16:35:03;100366.09;;;11.06;100.00
58243;BME280;50118;53.232;8.252;2022-09-16T16:37:29;100362.13;;;11.10;100.00
58243;BME280;50118;53.232;8.252;2022-09-16T16:39:54;100362.44;;;11.07;100.00
58243;BME280;50118;53.232;8.252;2022-09-16T16:42:20;100350.41;;;11.03;100.00
58243;BME280;50118;53.232;8.252;2022-09-16T16:44:47;100346.44;;;11.07;100.00
58243;BME280;50118;53.232;8.252;2022-09-16T16:47:12;100347.91;;;11.01;100.00
58243;BME280;50118;53.232;8.252;2022-09-16T16:49:38;100352.09;;;11.04;100.00
58243;BME280;50118;53.232;8.252;2022-09-16T16:52:05;100355.31;;;11.16;100.00
58243;BME280;50118;53.232;8.252;2022-09-16T16:54:31;100356.47;;;11.13;100.00
58243;BME280;50118;53.232;8.252;2022-09-16T16:56:57;100360.13;;;11.12;100.00
58243;BME280;50118;53.232;8.252;2022-09-16T16:59:24;100360.28;;;11.11;100.00
58243;BME280;50118;53.232;8.252;2022-09-16T17:01:52;100363.06;;;11.01;100.00
58243;BME280;50118;53.232;8.252;2022-09-16T17:04:18;100382.97;;;10.89;100.00
58243;BME280;50118;53.232;8.252;2022-09-16T17:06:44;100383.72;;;10.81;100.00
58243;BME280;50118;53.232;8.252;2022-09-16T17:09:11;100377.94;;;10.86;100.00
58243;BME280;50118;53.232;8.252;2022-09-16T17:11:52;100383.94;;;10.88;100.00
58243;BME280;50118;53.232;8.252;2022-09-16T17:14:19;100375.59;;;10.82;100.00
58243;BME280;50118;53.232;8.252;2022-09-16T17:16:44;100367.91;;;10.79;100.00
58243;BME280;50118;53.232;8.252;2022-09-16T17:19:11;100368.84;;;10.70;100.00
58243;BME280;50118;53.232;8.252;2022-09-16T17:21:37;100370.53;;;10.71;100.00